Time;durP1;ratioP1;P1;durP2;ratioP2;P2;SDS_P1;SDS_P2;PMS_P1;PMS_P2;Temp;Humidity;BMP_temperature;BMP_pressure;BME280_temperature;BME280_humidity;BME280_pressure;Samples;Min_cycle;Max_cycle;Signal;HPM_P1;HPM_P2
2022/11/09 00:00:47;;;;;;;1.90;1.40;;;16.40;99.90;;;;;;4975196;28;20492;-81
2022/11/09 00:03:12;;;;;;;2.63;1.43;;;16.50;99.90;;;;;;4975399;28;20434;-81
2022/11/09 00:05:38;;;;;;;1.60;1.43;;;16.50;99.90;;;;;;4975083;28;20433;-79
2022/11/09 00:08:08;;;;;;;2.50;1.43;;;16.50;99.90;;;;;;4975330;28;20205;-79
2022/11/09 00:10:33;;;;;;;2.33;1.43;;;16.50;99.90;;;;;;4974732;28;20236;-79
2022/11/09 00:13:00;;;;;;;1.43;1.33;;;16.40;99.90;;;;;;4974547;28;20945;-79
2022/11/09 00:15:26;;;;;;;2.00;1.53;;;16.50;99.90;;;;;;4975808;28;20197;-79
2022/11/09 00:17:51;;;;;;;3.03;1.57;;;16.40;99.90;;;;;;4975854;28;20477;-79
2022/11/09 00:20:17;;;;;;;3.90;1.40;;;16.40;99.90;;;;;;4958561;28;20482;-79
2022/11/09 00:22:47;;;;;;;3.17;2.23;;;16.40;99.90;;;;;;4975846;28;20585;-78
2022/11/09 00:25:13;;;;;;;1.87;1.20;;;16.50;99.90;;;;;;4975862;28;20224;-77
2022/11/09 00:27:38;;;;;;;3.67;1.80;;;16.50;99.90;;;;;;4975633;28;20429;-81
2022/11/09 00:30:04;;;;;;;1.77;1.47;;;16.40;99.90;;;;;;4975772;28;20185;-81
2022/11/09 00:32:30;;;;;;;2.60;1.80;;;16.50;99.90;;;;;;4975501;28;20221;-81
2022/11/09 00:34:56;;;;;;;1.57;1.47;;;16.60;99.90;;;;;;4975603;28;20435;-81
2022/11/09 00:37:21;;;;;;;4.60;1.50;;;16.50;99.90;;;;;;4975569;28;20538;-82
2022/11/09 00:39:47;;;;;;;4.20;1.70;;;16.50;99.90;;;;;;4975666;28;20237;-81
2022/11/09 00:42:12;;;;;;;1.87;1.53;;;16.40;99.90;;;;;;4975560;28;20181;-82
2022/11/09 00:44:38;;;;;;;2.07;1.70;;;16.40;99.90;;;;;;4975462;28;20204;-82
2022/11/09 00:47:03;;;;;;;3.07;1.93;;;16.30;99.90;;;;;;4975510;28;20178;-82
2022/11/09 00:49:29;;;;;;;2.07;1.50;;;16.30;99.90;;;;;;4975265;28;20213;-82
2022/11/09 00:51:54;;;;;;;3.30;1.40;;;16.30;99.90;;;;;;4975475;28;20224;-76
2022/11/09 00:54:20;;;;;;;4.53;2.00;;;16.30;99.90;;;;;;4975249;28;20220;-79
2022/11/09 00:56:45;;;;;;;1.47;1.17;;;16.40;99.90;;;;;;4975243;28;20177;-79
2022/11/09 00:59:11;;;;;;;1.70;1.20;;;16.40;99.90;;;;;;4975200;28;20177;-78
2022/11/09 01:01:36;;;;;;;2.33;1.67;;;16.30;99.90;;;;;;4975140;28;20236;-78
2022/11/09 01:04:03;;;;;;;3.23;1.60;;;16.30;99.90;;;;;;4975191;28;20395;-79
2022/11/09 01:06:28;;;;;;;2.13;1.40;;;16.20;99.90;;;;;;4974950;28;20244;-79
2022/11/09 01:08:54;;;;;;;2.37;1.50;;;16.20;99.90;;;;;;4974992;28;20933;-78
2022/11/09 01:11:21;;;;;;;3.10;1.17;;;16.20;99.90;;;;;;4975106;28;20205;-79
2022/11/09 01:13:47;;;;;;;2.40;1.20;;;16.20;99.90;;;;;;4975002;28;20185;-79
2022/11/09 01:16:16;;;;;;;2.77;1.67;;;16.20;99.90;;;;;;4974898;28;20425;-79
2022/11/09 01:18:42;;;;;;;4.10;2.00;;;16.20;99.90;;;;;;4974755;28;20441;-79
2022/11/09 01:21:11;;;;;;;2.23;1.40;;;16.10;99.90;;;;;;4974815;28;20787;-79
2022/11/09 01:23:37;;;;;;;3.20;1.70;;;16.20;99.90;;;;;;4974578;28;20209;-79
2022/11/09 01:26:05;;;;;;;3.03;1.73;;;16.20;99.90;;;;;;4974806;28;20903;-80
2022/11/09 01:28:31;;;;;;;2.40;1.60;;;16.10;99.90;;;;;;4974466;28;20471;-81
2022/11/09 01:31:05;;;;;;;2.90;2.00;;;16.10;99.90;;;;;;4974584;28;20828;-80
2022/11/09 05:32:19;;;;;;;1.80;1.70;;;15.40;99.90;;;;;;5122519;23;20499;-81
2022/11/09 05:34:44;;;;;;;3.53;1.93;;;15.40;99.90;;;;;;4974800;28;20952;-82
2022/11/09 05:37:10;;;;;;;2.47;1.93;;;15.50;99.90;;;;;;4974630;28;20644;-81
2022/11/09 05:39:35;;;;;;;4.07;1.67;;;15.40;99.90;;;;;;4974326;28;20261;-82
2022/11/09 05:42:01;;;;;;;2.80;2.23;;;15.50;99.90;;;;;;4974604;28;20265;-78
2022/11/09 05:44:26;;;;;;;4.70;1.93;;;15.50;99.90;;;;;;4962257;28;20636;-81
2022/11/09 05:46:52;;;;;;;5.33;1.77;;;15.40;99.90;;;;;;4957970;28;20174;-79
2022/11/09 05:49:18;;;;;;;4.83;2.30;;;15.30;99.90;;;;;;4960804;28;20546;-78
2022/11/09 05:51:43;;;;;;;5.77;2.50;;;15.20;99.90;;;;;;4962048;28;20202;-79
2022/11/09 05:54:09;;;;;;;3.03;1.73;;;15.20;99.90;;;;;;4962909;28;20174;-78
2022/11/09 05:56:34;;;;;;;9.23;2.70;;;15.30;99.90;;;;;;4964110;28;20220;-79
2022/11/09 05:59:00;;;;;;;2.43;1.50;;;15.30;99.90;;;;;;4965203;28;20687;-80
2022/11/09 06:01:25;;;;;;;3.40;2.17;;;15.20;99.90;;;;;;4952478;28;20190;-81
2022/11/09 06:03:53;;;;;;;3.97;2.03;;;15.20;99.90;;;;;;4954001;29;20214;-78
2022/11/09 06:06:19;;;;;;;3.40;1.93;;;15.20;99.90;;;;;;4953863;29;20209;-80
2022/11/09 06:08:44;;;;;;;5.33;2.00;;;15.20;99.90;;;;;;4953769;28;20570;-78
2022/11/09 06:11:12;;;;;;;3.67;1.70;;;15.10;99.90;;;;;;4965540;28;20174;-78
2022/11/09 06:13:38;;;;;;;2.17;1.30;;;15.10;99.90;;;;;;4977318;28;20820;-78
2022/11/09 06:16:04;;;;;;;8.30;1.87;;;15.10;99.90;;;;;;4977008;28;20437;-79
2022/11/09 06:18:31;;;;;;;3.60;1.60;;;15.00;99.90;;;;;;4976431;28;20244;-78
2022/11/09 06:20:59;;;;;;;4.63;1.70;;;15.00;99.90;;;;;;4977205;28;20429;-79
2022/11/09 06:23:26;;;;;;;6.23;1.80;;;15.00;99.90;;;;;;4977044;28;20433;-79
2022/11/09 06:25:52;;;;;;;6.73;2.30;;;14.90;99.90;;;;;;4959756;28;20509;-79
2022/11/09 06:28:19;;;;;;;5.63;2.50;;;14.90;99.90;;;;;;4975489;28;20827;-79
2022/11/09 06:30:44;;;;;;;10.87;1.73;;;15.00;99.90;;;;;;4966355;28;21067;-76
2022/11/09 06:33:10;;;;;;;5.73;2.63;;;15.10;99.90;;;;;;4967293;28;20462;-78
2022/11/09 06:35:36;;;;;;;3.90;1.80;;;15.00;99.90;;;;;;4965576;28;20469;-78
2022/11/09 06:38:01;;;;;;;5.10;1.50;;;15.00;99.90;;;;;;4967471;28;20170;-78
2022/11/09 06:40:27;;;;;;;5.60;2.13;;;15.00;99.90;;;;;;4971831;28;20643;-86
2022/11/09 06:42:57;;;;;;;7.47;2.00;;;14.90;99.90;;;;;;4968424;28;20193;-88
2022/11/09 06:45:22;;;;;;;5.57;1.70;;;14.90;99.90;;;;;;4977674;28;20174;-88
2022/11/09 06:47:48;;;;;;;4.13;1.70;;;14.90;99.90;;;;;;4977241;28;20423;-88
2022/11/09 06:50:13;;;;;;;3.70;1.60;;;14.90;99.90;;;;;;4977567;28;20189;-86
2022/11/09 06:52:39;;;;;;;6.00;1.73;;;14.90;99.90;;;;;;4977568;28;20205;-88
2022/11/09 06:55:05;;;;;;;4.03;1.90;;;14.90;99.90;;;;;;4977540;28;20633;-88
2022/11/09 06:57:31;;;;;;;6.97;2.10;;;14.90;99.90;;;;;;4977482;28;20656;-88
2022/11/09 06:59:59;;;;;;;4.67;2.00;;;14.80;99.90;;;;;;4977560;28;20421;-86
2022/11/09 07:02:25;;;;;;;4.23;2.40;;;14.70;99.90;;;;;;4977429;28;20523;-88
2022/11/09 07:04:51;;;;;;;5.97;2.00;;;14.60;99.90;;;;;;4967553;28;20501;-86
2022/11/09 07:07:16;;;;;;;6.70;2.20;;;14.60;99.90;;;;;;4964464;28;20448;-85
2022/11/09 07:09:42;;;;;;;10.03;2.40;;;14.60;99.90;;;;;;4967801;28;20509;-87
2022/11/09 07:12:08;;;;;;;6.90;2.30;;;14.60;99.90;;;;;;4967042;28;20181;-87
2022/11/09 07:14:34;;;;;;;5.30;1.90;;;14.50;99.90;;;;;;4966167;28;20185;-83
2022/11/09 07:17:00;;;;;;;6.20;2.43;;;14.50;99.90;;;;;;4968084;28;20433;-84
2022/11/09 07:19:27;;;;;;;5.10;1.83;;;14.50;99.90;;;;;;4962560;28;20439;-87
2022/11/09 07:21:53;;;;;;;3.27;1.73;;;14.40;99.90;;;;;;4957475;28;20191;-87
2022/11/09 07:24:18;;;;;;;5.73;1.63;;;14.50;99.90;;;;;;4957647;29;20430;-88
2022/11/09 07:26:46;;;;;;;3.40;1.80;;;14.50;99.90;;;;;;4957813;29;20579;-88
2022/11/09 07:29:11;;;;;;;10.83;2.07;;;14.40;99.90;;;;;;4956613;29;20566;-87
2022/11/09 07:31:37;;;;;;;4.13;1.73;;;14.40;99.90;;;;;;4957291;29;20485;-87
2022/11/09 07:34:03;;;;;;;5.23;1.70;;;14.40;99.90;;;;;;4957718;29;20181;-87
2022/11/09 07:36:30;;;;;;;4.97;1.73;;;14.50;99.90;;;;;;4957680;29;20289;-88
2022/11/09 07:38:56;;;;;;;6.60;2.13;;;14.50;99.90;;;;;;4957678;29;20514;-87
2022/11/09 07:41:22;;;;;;;4.67;1.50;;;14.50;99.90;;;;;;4957528;29;20430;-87
2022/11/09 07:43:47;;;;;;;6.17;2.03;;;14.50;99.90;;;;;;4957261;29;20661;-87
2022/11/09 07:46:13;;;;;;;5.70;1.37;;;14.50;99.90;;;;;;4957354;29;20189;-87
2022/11/09 07:48:39;;;;;;;4.83;1.83;;;14.50;99.90;;;;;;4957264;29;20739;-87
2022/11/09 07:51:04;;;;;;;2.53;2.03;;;14.60;99.90;;;;;;4957327;29;20214;-88
2022/11/09 07:53:30;;;;;;;5.17;1.67;;;14.60;99.90;;;;;;4957195;29;20273;-87
2022/11/09 07:55:57;;;;;;;3.00;1.40;;;14.60;99.90;;;;;;4957264;29;20183;-88
2022/11/09 07:58:23;;;;;;;5.20;1.73;;;14.60;99.90;;;;;;4940000;29;20178;-87
2022/11/09 08:00:48;;;;;;;5.10;1.83;;;14.60;99.90;;;;;;4957128;29;20432;-86
2022/11/09 08:03:14;;;;;;;6.47;1.30;;;14.70;99.90;;;;;;4957103;29;20206;-87
2022/11/09 08:05:39;;;;;;;3.50;1.40;;;14.70;99.90;;;;;;4957277;29;20171;-87
2022/11/09 08:08:09;;;;;;;5.10;1.80;;;14.70;99.90;;;;;;4957020;29;20284;-87
2022/11/09 08:10:35;;;;;;;4.80;1.53;;;14.80;99.90;;;;;;4956948;29;20761;-86
2022/11/09 08:13:04;;;;;;;3.67;2.27;;;14.80;99.90;;;;;;4957035;29;20418;-87
2022/11/09 08:15:30;;;;;;;12.70;1.70;;;14.80;99.90;;;;;;4956823;29;20433;-88
2022/11/09 08:18:01;;;;;;;6.60;1.50;;;14.90;99.90;;;;;;4939654;29;20436;-88
2022/11/09 08:20:27;;;;;;;3.10;1.97;;;14.90;99.90;;;;;;4956844;29;20540;-87
2022/11/09 08:22:52;;;;;;;3.93;2.70;;;14.90;99.90;;;;;;4956727;29;20882;-87
2022/11/09 08:25:18;;;;;;;8.90;1.90;;;15.00;99.90;;;;;;4956542;29;20480;-87
2022/11/09 08:27:43;;;;;;;6.10;1.70;;;15.10;99.90;;;;;;4956534;29;20186;-87
2022/11/09 08:30:15;;;;;;;7.43;1.63;;;15.10;99.90;;;;;;4956666;29;20541;-87
2022/11/09 08:32:42;;;;;;;7.00;1.50;;;15.10;99.90;;;;;;4955800;28;20654;-87
2022/11/09 08:35:09;;;;;;;5.93;1.93;;;15.10;99.90;;;;;;4956942;29;20434;-87
2022/11/09 08:37:36;;;;;;;3.60;1.80;;;15.10;99.90;;;;;;4956358;29;20513;-87
2022/11/09 08:40:02;;;;;;;7.00;2.30;;;15.00;99.90;;;;;;4956304;29;20430;-85
2022/11/09 08:42:27;;;;;;;3.67;1.63;;;15.10;99.90;;;;;;4956196;29;20430;-85
2022/11/09 08:44:53;;;;;;;3.50;2.10;;;15.30;99.90;;;;;;4956278;29;20452;-85
2022/11/09 08:47:19;;;;;;;2.60;1.30;;;15.40;99.90;;;;;;4956134;29;20183;-84
2022/11/09 08:49:46;;;;;;;8.80;1.57;;;15.40;99.90;;;;;;4956168;29;20713;-84
2022/11/09 08:52:12;;;;;;;3.90;1.50;;;15.40;99.90;;;;;;4956079;29;20179;-82
2022/11/09 08:54:38;;;;;;;4.77;1.80;;;15.40;99.90;;;;;;4956017;29;20434;-83
2022/11/09 08:57:04;;;;;;;4.00;1.90;;;15.50;99.90;;;;;;4955971;29;20493;-83
2022/11/09 08:59:29;;;;;;;3.33;1.80;;;15.60;99.90;;;;;;4938791;29;20438;-83
2022/11/09 09:01:55;;;;;;;4.77;1.90;;;15.70;99.90;;;;;;4956078;29;20224;-83
2022/11/09 09:04:20;;;;;;;5.03;1.60;;;15.80;99.90;;;;;;4955577;29;20182;-83
2022/11/09 09:06:46;;;;;;;5.37;1.67;;;15.80;99.90;;;;;;4955918;29;20190;-86
2022/11/09 09:09:11;;;;;;;2.30;1.80;;;15.80;99.90;;;;;;4955793;29;20218;-86
2022/11/09 09:11:37;;;;;;;3.97;1.90;;;15.80;99.90;;;;;;4955664;29;20190;-85
2022/11/09 09:14:02;;;;;;;5.20;1.50;;;15.90;99.90;;;;;;4955815;29;20646;-85
2022/11/09 09:16:28;;;;;;;3.30;1.33;;;16.00;99.90;;;;;;4955769;29;20193;-86
2022/11/09 09:18:53;;;;;;;3.13;1.80;;;16.10;99.90;;;;;;4955732;29;20233;-85
2022/11/09 09:21:19;;;;;;;3.30;1.40;;;16.20;99.90;;;;;;4955521;29;20185;-87
2022/11/09 09:23:49;;;;;;;4.73;1.90;;;16.20;99.90;;;;;;4955743;29;20186;-86
2022/11/09 09:26:16;;;;;;;2.83;1.70;;;16.20;99.90;;;;;;4955750;29;20701;-87
2022/11/09 09:28:42;;;;;;;7.43;2.10;;;16.30;99.90;;;;;;4955375;29;20516;-81
2022/11/09 09:31:08;;;;;;;7.57;1.93;;;16.30;99.90;;;;;;4955248;29;20501;-81
2022/11/09 09:33:34;;;;;;;7.27;1.70;;;16.40;99.90;;;;;;4955133;29;20206;-81
2022/11/09 09:36:00;;;;;;;3.37;1.53;;;16.50;99.90;;;;;;4955480;29;20941;-81
2022/11/09 09:38:27;;;;;;;6.27;2.00;;;16.50;99.90;;;;;;4955267;29;20221;-82
2022/11/09 09:41:04;;;;;;;3.30;2.03;;;16.40;99.90;;;;;;4938147;29;20241;-85
2022/11/09 09:43:47;;;;;;;4.43;1.97;;;16.40;99.90;;;;;;4955663;28;20496;-84
2022/11/09 09:46:23;;;;;;;5.50;3.53;;;16.50;99.90;;;;;;4955371;29;20518;-84
2022/11/09 09:49:01;;;;;;;3.90;1.87;;;16.60;99.90;;;;;;4955229;29;20481;-84
2022/11/09 09:51:44;;;;;;;4.20;2.23;;;16.60;99.90;;;;;;4955318;29;20806;-84
2022/11/09 09:54:26;;;;;;;5.77;2.07;;;16.50;99.90;;;;;;4955310;29;20414;-84
2022/11/09 09:56:57;;;;;;;3.57;1.93;;;16.60;99.90;;;;;;4955361;29;20979;-84
2022/11/09 09:59:40;;;;;;;8.30;2.07;;;16.60;99.90;;;;;;4955078;29;20765;-84
2022/11/09 10:02:29;;;;;;;4.17;1.93;;;16.60;99.90;;;;;;4955227;29;20685;-81
2022/11/09 10:05:01;;;;;;;4.60;2.47;;;16.50;99.90;;;;;;4955166;29;20524;-81
2022/11/09 10:07:58;;;;;;;8.67;1.70;;;16.60;99.90;;;;;;4955086;29;20434;-81
2022/11/09 10:10:37;;;;;;;3.40;1.50;;;16.60;99.90;;;;;;4955104;29;20960;-81
2022/11/09 10:13:29;;;;;;;5.17;2.73;;;16.50;99.90;;;;;;4955074;29;20492;-81
2022/11/09 10:16:06;;;;;;;2.30;1.57;;;16.50;99.90;;;;;;4955008;29;20584;-81
2022/11/09 10:18:42;;;;;;;3.33;1.43;;;16.60;99.90;;;;;;4955043;29;20425;-85
2022/11/09 10:21:22;;;;;;;3.93;1.10;;;16.50;99.90;;;;;;4937698;29;20842;-85
2022/11/09 10:24:12;;;;;;;3.73;1.90;;;16.50;99.90;;;;;;4954961;29;20449;-85
2022/11/09 10:26:43;;;;;;;8.90;2.03;;;16.50;99.90;;;;;;4954981;29;20426;-85
2022/11/09 10:29:37;;;;;;;2.53;1.40;;;16.40;99.90;;;;;;4954776;29;20520;-82
2022/11/09 10:32:20;;;;;;;4.03;1.30;;;16.50;99.90;;;;;;4954710;29;20560;-83
2022/11/09 10:35:23;;;;;;;3.27;1.63;;;16.50;99.90;;;;;;4954762;29;20929;-83
2022/11/09 10:37:51;;;;;;;4.43;1.40;;;16.40;99.90;;;;;;4875536;29;20785;-83
2022/11/09 10:40:48;;;;;;;7.77;1.67;;;16.50;99.90;;;;;;4954837;29;20430;-83
2022/11/09 10:43:14;;;;;;;6.00;1.87;;;16.40;99.90;;;;;;4955120;29;20505;-83
2022/11/09 10:45:42;;;;;;;4.27;1.43;;;16.40;99.90;;;;;;4954701;29;20468;-84
2022/11/09 10:48:10;;;;;;;2.93;1.63;;;16.40;99.90;;;;;;4954595;29;20550;-84
2022/11/09 10:50:53;;;;;;;3.00;1.30;;;16.50;99.90;;;;;;4954542;29;20438;-84
2022/11/09 10:53:21;;;;;;;2.40;1.50;;;16.40;99.90;;;;;;4954585;29;20815;-84
2022/11/09 10:55:57;;;;;;;3.33;1.43;;;16.40;99.90;;;;;;4955234;28;20437;-84
2022/11/09 10:58:49;;;;;;;2.97;1.50;;;16.40;99.90;;;;;;4958422;29;20480;-84
2022/11/09 11:01:15;;;;;;;2.80;1.67;;;16.40;99.90;;;;;;4958250;29;20513;-84
2022/11/09 11:03:42;;;;;;;4.03;1.90;;;16.40;99.90;;;;;;4958259;29;20445;-87
2022/11/09 11:06:17;;;;;;;3.30;1.70;;;16.40;99.90;;;;;;4941022;29;20222;-88
2022/11/09 11:08:46;;;;;;;12.57;3.10;;;16.40;99.90;;;;;;4958387;29;20568;-88
2022/11/09 11:11:22;;;;;;;3.37;1.70;;;16.20;99.90;;;;;;4958108;29;20432;-85
2022/11/09 11:13:49;;;;;;;4.47;1.87;;;16.20;99.90;;;;;;4958110;29;20433;-87
2022/11/09 11:16:35;;;;;;;3.40;1.80;;;16.30;99.90;;;;;;4958267;29;20481;-85
2022/11/09 11:19:02;;;;;;;3.23;2.07;;;16.50;99.90;;;;;;4957814;29;20426;-84
2022/11/09 11:21:29;;;;;;;4.77;1.83;;;16.60;99.90;;;;;;4957610;29;20916;-85
2022/11/09 11:24:11;;;;;;;3.83;1.63;;;16.70;99.90;;;;;;4957984;29;20481;-85
2022/11/09 11:26:43;;;;;;;2.07;1.37;;;16.80;99.90;;;;;;4957805;29;20437;-85
2022/11/09 11:29:31;;;;;;;5.27;1.90;;;16.90;99.90;;;;;;4957586;29;20477;-85
2022/11/09 11:31:57;;;;;;;3.37;1.23;;;17.00;99.90;;;;;;4957724;29;20478;-84
2022/11/09 11:34:22;;;;;;;2.77;1.33;;;16.90;99.90;;;;;;4957824;29;20839;-84
2022/11/09 11:37:12;;;;;;;6.47;1.63;;;17.00;99.90;;;;;;4957893;29;20209;-84
2022/11/09 11:39:54;;;;;;;7.23;1.80;;;17.20;99.90;;;;;;4957695;29;20175;-83
2022/11/09 11:43:08;;;;;;;3.70;2.00;;;17.20;99.90;;;;;;4957507;29;20429;-83
2022/11/09 11:45:40;;;;;;;4.07;2.00;;;17.40;99.90;;;;;;4872401;29;20438;-83
2022/11/09 11:48:38;;;;;;;5.60;1.43;;;17.50;99.90;;;;;;4957373;29;20442;-83
2022/11/09 11:51:30;;;;;;;3.23;1.53;;;17.40;99.90;;;;;;4957655;29;20430;-84
2022/11/09 11:54:17;;;;;;;3.53;1.13;;;17.30;99.90;;;;;;4957570;29;20480;-84
2022/11/09 11:57:24;;;;;;;4.10;1.30;;;17.40;99.90;;;;;;4957058;29;20433;-81
2022/11/09 11:59:55;;;;;;;5.27;1.30;;;17.30;99.90;;;;;;4956540;29;20444;-82
2022/11/09 12:02:33;;;;;;;4.60;1.30;;;17.10;99.90;;;;;;4957216;29;20430;-85
2022/11/09 12:05:16;;;;;;;3.13;1.27;;;17.10;99.90;;;;;;4957087;29;20776;-85
2022/11/09 12:08:00;;;;;;;3.90;1.70;;;17.00;99.90;;;;;;4956067;28;20509;-86
2022/11/09 12:10:55;;;;;;;6.70;1.40;;;16.90;99.90;;;;;;4956877;29;20433;-85
2022/11/09 12:13:47;;;;;;;6.90;1.30;;;16.80;99.90;;;;;;4956831;29;20445;-85
2022/11/09 12:16:26;;;;;;;4.47;1.70;;;16.90;99.90;;;;;;4956861;29;20643;-85
2022/11/09 12:18:57;;;;;;;6.00;1.93;;;16.80;99.90;;;;;;4957019;29;20433;-85
2022/11/09 12:21:34;;;;;;;5.13;1.23;;;16.90;99.90;;;;;;4956707;29;20442;-85
2022/11/09 12:24:25;;;;;;;5.03;2.40;;;16.90;99.90;;;;;;4956764;29;20434;-83
2022/11/09 12:27:07;;;;;;;4.13;1.30;;;16.80;99.90;;;;;;4956601;29;20461;-84
2022/11/09 12:29:54;;;;;;;4.70;1.17;;;16.80;99.90;;;;;;4956583;29;20473;-87
2022/11/09 12:32:33;;;;;;;5.30;1.37;;;16.70;99.90;;;;;;4956291;29;20470;-83
2022/11/09 12:35:20;;;;;;;3.30;1.23;;;16.80;99.90;;;;;;4939572;29;20486;-85
2022/11/09 12:37:54;;;;;;;5.83;1.50;;;16.80;99.90;;;;;;4956318;29;20805;-83
2022/11/09 12:40:34;;;;;;;8.47;1.37;;;16.90;99.90;;;;;;4956525;29;20482;-84
2022/11/09 12:43:14;;;;;;;8.57;1.27;;;16.80;99.90;;;;;;4956659;29;20437;-84
2022/11/09 12:45:40;;;;;;;6.97;1.57;;;16.80;99.90;;;;;;4956323;29;20501;-83
2022/11/09 12:48:29;;;;;;;5.90;1.73;;;16.80;99.90;;;;;;4956213;29;20438;-84
2022/11/09 12:50:57;;;;;;;5.93;1.50;;;16.80;99.90;;;;;;4956236;29;20429;-84
2022/11/09 12:53:26;;;;;;;3.83;1.57;;;16.60;99.90;;;;;;4956061;29;20458;-83
2022/11/09 12:55:58;;;;;;;5.03;1.60;;;16.70;99.90;;;;;;4955890;29;20448;-83
2022/11/09 12:58:30;;;;;;;2.80;1.43;;;16.80;99.90;;;;;;4956023;29;20430;-84
2022/11/09 13:01:01;;;;;;;5.53;2.57;;;16.70;99.90;;;;;;4955969;29;20434;-86
2022/11/09 13:03:32;;;;;;;5.27;1.80;;;16.70;99.90;;;;;;4955403;29;20433;-87
2022/11/09 13:06:16;;;;;;;5.03;1.70;;;16.70;99.90;;;;;;4955435;29;20768;-86
2022/11/09 13:08:56;;;;;;;9.70;1.20;;;16.60;99.90;;;;;;4955952;29;20488;-87
2022/11/09 13:11:37;;;;;;;6.30;1.60;;;16.60;99.90;;;;;;4955852;29;20790;-87
2022/11/09 13:14:21;;;;;;;5.30;2.10;;;16.50;99.90;;;;;;4956183;29;20414;-87
2022/11/09 13:16:52;;;;;;;7.80;1.50;;;16.50;99.90;;;;;;4956098;29;20437;-87
2022/11/09 13:19:38;;;;;;;4.80;1.60;;;16.30;99.90;;;;;;4955772;28;20509;-86
2022/11/09 13:22:18;;;;;;;5.83;1.83;;;16.40;99.90;;;;;;4939651;29;20509;-87
2022/11/09 13:24:52;;;;;;;5.93;1.67;;;16.40;99.90;;;;;;4955903;29;20430;-87
2022/11/09 13:27:37;;;;;;;5.17;1.90;;;16.40;99.90;;;;;;4955667;29;20451;-87
2022/11/09 13:30:22;;;;;;;5.57;2.50;;;16.40;99.90;;;;;;4955828;29;20883;-87
2022/11/09 13:33:09;;;;;;;7.17;1.87;;;16.40;99.90;;;;;;4938196;29;20434;-87
2022/11/09 13:35:40;;;;;;;3.73;2.00;;;16.20;99.90;;;;;;4955818;29;20447;-87
2022/11/09 13:38:17;;;;;;;6.70;2.30;;;16.30;99.90;;;;;;4938512;29;20436;-82
2022/11/09 13:40:47;;;;;;;10.67;1.60;;;16.20;99.90;;;;;;4955206;29;20437;-78
2022/11/09 13:43:18;;;;;;;5.23;1.97;;;16.20;99.90;;;;;;4954991;29;20461;-82
2022/11/09 13:45:49;;;;;;;5.30;1.90;;;16.30;99.90;;;;;;4954665;29;20933;-82
2022/11/09 13:48:49;;;;;;;4.50;1.90;;;16.40;99.90;;;;;;4954977;29;20513;-82
2022/11/09 13:51:15;;;;;;;7.70;1.97;;;16.20;99.90;;;;;;4954899;29;20468;-82
2022/11/09 13:53:49;;;;;;;5.00;1.63;;;16.20;99.90;;;;;;4955044;29;20414;-81
2022/11/09 13:56:27;;;;;;;5.03;1.70;;;16.20;99.90;;;;;;4955106;29;20244;-80
2022/11/09 13:59:16;;;;;;;9.97;1.90;;;16.30;99.90;;;;;;4955019;29;20434;-80
2022/11/09 14:01:49;;;;;;;7.63;1.80;;;16.30;99.90;;;;;;4955060;29;20433;-80
2022/11/09 14:04:27;;;;;;;4.87;1.80;;;16.40;99.90;;;;;;4955076;29;20438;-80
2022/11/09 14:07:11;;;;;;;5.07;1.30;;;16.30;99.90;;;;;;4954345;29;20434;-80
2022/11/09 14:10:01;;;;;;;5.67;1.33;;;16.30;99.90;;;;;;4954955;29;20476;-79
2022/11/09 14:12:40;;;;;;;6.10;1.70;;;16.40;99.90;;;;;;4954921;29;20442;-79
2022/11/09 14:15:11;;;;;;;9.97;2.10;;;16.20;99.90;;;;;;4954978;29;20426;-81
2022/11/09 14:17:52;;;;;;;3.93;1.93;;;16.30;99.90;;;;;;4955178;29;20453;-79
2022/11/09 14:20:27;;;;;;;8.37;1.97;;;16.20;99.90;;;;;;4954869;29;20977;-81
2022/11/09 14:22:53;;;;;;;6.40;1.57;;;16.10;99.90;;;;;;4954960;29;20457;-81
2022/11/09 14:25:22;;;;;;;3.50;1.30;;;16.30;99.90;;;;;;4954954;29;20458;-81
2022/11/09 14:27:55;;;;;;;7.30;2.67;;;16.20;99.90;;;;;;4954846;29;20701;-81
2022/11/09 14:30:29;;;;;;;4.83;1.77;;;16.00;99.90;;;;;;4954573;28;20452;-79
2022/11/09 14:32:56;;;;;;;6.67;1.60;;;16.00;99.90;;;;;;4958633;29;20442;-81
2022/11/09 14:35:29;;;;;;;4.33;1.70;;;16.10;99.90;;;;;;4958372;29;20525;-81
2022/11/09 14:37:58;;;;;;;6.53;2.13;;;16.00;99.90;;;;;;4958733;29;20804;-85
2022/11/09 14:40:26;;;;;;;6.40;2.07;;;16.10;99.90;;;;;;4958933;29;20439;-85
2022/11/09 14:43:09;;;;;;;8.90;2.03;;;16.20;99.90;;;;;;4958792;29;20476;-82
2022/11/09 14:45:34;;;;;;;5.03;1.97;;;16.10;99.90;;;;;;4958790;28;20434;-81
2022/11/09 14:48:00;;;;;;;5.43;1.60;;;16.10;99.90;;;;;;4957181;28;20437;-82
2022/11/09 14:50:30;;;;;;;11.70;2.13;;;16.10;99.90;;;;;;4978878;28;20186;-83
2022/11/09 14:52:57;;;;;;;4.67;1.50;;;16.00;99.90;;;;;;4977575;28;20166;-79
2022/11/09 14:55:24;;;;;;;9.33;2.20;;;16.00;99.90;;;;;;4977494;28;20794;-80
2022/11/09 14:57:53;;;;;;;5.03;1.53;;;16.00;99.90;;;;;;4977537;28;20448;-81
2022/11/09 15:00:31;;;;;;;5.07;1.77;;;16.10;99.90;;;;;;4977344;28;20421;-81
2022/11/09 15:02:58;;;;;;;5.00;1.80;;;15.90;99.90;;;;;;4953197;28;20441;-81
2022/11/09 15:05:39;;;;;;;4.00;1.50;;;15.90;99.90;;;;;;4977343;28;20435;-82
2022/11/09 15:08:18;;;;;;;6.77;2.47;;;15.90;99.90;;;;;;4976505;28;20453;-80
2022/11/09 15:10:52;;;;;;;5.87;1.60;;;15.70;99.90;;;;;;4976491;28;20742;-81
2022/11/09 15:13:26;;;;;;;2.53;1.60;;;15.60;99.90;;;;;;4976212;28;21010;-79
2022/11/09 15:15:53;;;;;;;9.73;2.03;;;15.80;99.90;;;;;;4976420;28;20443;-80
2022/11/09 15:18:31;;;;;;;11.27;2.00;;;15.80;99.90;;;;;;4976460;28;20848;-78
2022/11/09 15:21:10;;;;;;;4.90;2.07;;;15.70;99.90;;;;;;4975950;28;20435;-76
2022/11/09 15:23:39;;;;;;;7.13;2.43;;;15.70;99.90;;;;;;4976196;28;20440;-78
2022/11/09 15:26:05;;;;;;;5.40;1.70;;;15.70;99.90;;;;;;4976223;28;20425;-80
2022/11/09 15:28:34;;;;;;;5.23;1.93;;;15.70;99.90;;;;;;4965000;28;20957;-78
2022/11/09 15:30:59;;;;;;;12.30;2.10;;;15.70;99.90;;;;;;4947141;28;20506;-74
2022/11/09 15:33:51;;;;;;;3.90;1.33;;;15.50;99.90;;;;;;4968053;28;20449;-74
2022/11/09 15:36:30;;;;;;;7.80;2.00;;;15.60;99.90;;;;;;4967481;28;20174;-73
2022/11/09 15:38:57;;;;;;;9.20;2.10;;;15.50;99.90;;;;;;4967478;28;20807;-72
2022/11/09 15:41:24;;;;;;;7.70;2.63;;;15.60;99.90;;;;;;4976109;28;20421;-79
2022/11/09 15:43:50;;;;;;;10.13;1.87;;;15.60;99.90;;;;;;4976824;28;20433;-78
2022/11/09 15:46:19;;;;;;;10.13;2.47;;;15.50;99.90;;;;;;4958027;28;21013;-77
2022/11/09 15:48:45;;;;;;;7.73;2.10;;;15.40;99.90;;;;;;4965129;28;20309;-76
2022/11/09 15:51:12;;;;;;;5.50;1.77;;;15.50;99.90;;;;;;4965964;28;20469;-77
2022/11/09 15:53:38;;;;;;;8.43;2.63;;;15.40;99.90;;;;;;4966165;28;20593;-76
2022/11/09 15:56:04;;;;;;;8.53;1.90;;;15.50;99.90;;;;;;4967323;28;20457;-76
2022/11/09 15:58:29;;;;;;;3.03;1.67;;;15.40;99.90;;;;;;4968474;28;20441;-78
2022/11/09 16:00:55;;;;;;;4.93;2.00;;;15.40;99.90;;;;;;4970226;28;21004;-75
2022/11/09 16:03:20;;;;;;;2.90;2.00;;;15.30;99.90;;;;;;4962714;28;20516;-74
2022/11/09 16:05:46;;;;;;;6.27;2.30;;;15.30;99.90;;;;;;4958572;28;20186;-73
2022/11/09 16:08:12;;;;;;;7.70;1.90;;;15.30;99.90;;;;;;4964209;28;20434;-72
2022/11/09 16:10:39;;;;;;;6.63;1.97;;;15.40;99.90;;;;;;4972976;28;20433;-72
2022/11/09 16:13:06;;;;;;;5.03;2.23;;;15.50;99.90;;;;;;4976320;28;20441;-72
2022/11/09 16:15:34;;;;;;;7.43;1.67;;;15.50;99.90;;;;;;4976015;28;20961;-73
2022/11/09 16:17:59;;;;;;;4.00;1.30;;;15.30;99.90;;;;;;4964490;28;20441;-72
2022/11/09 16:20:25;;;;;;;11.83;2.00;;;15.20;99.90;;;;;;4955391;29;20434;-71
2022/11/09 16:22:50;;;;;;;3.20;1.40;;;15.20;99.90;;;;;;4956813;28;20238;-71
2022/11/09 16:25:16;;;;;;;2.40;1.30;;;15.20;99.90;;;;;;4966130;28;20170;-73
2022/11/09 16:27:43;;;;;;;3.20;1.20;;;15.10;99.90;;;;;;4970841;28;20250;-75
2022/11/09 16:30:09;;;;;;;9.57;2.40;;;15.00;99.90;;;;;;4975562;28;20218;-72
2022/11/09 16:32:35;;;;;;;3.93;1.87;;;14.90;99.90;;;;;;4975279;28;20468;-73
2022/11/09 16:35:01;;;;;;;5.73;1.70;;;14.80;99.90;;;;;;4975001;28;20430;-71
2022/11/09 16:37:30;;;;;;;5.00;2.13;;;14.80;99.90;;;;;;4975506;28;20432;-75
2022/11/09 16:39:58;;;;;;;2.57;1.70;;;14.90;99.90;;;;;;4975599;28;20459;-72
2022/11/09 16:42:25;;;;;;;5.07;1.87;;;14.90;99.90;;;;;;4975488;28;20437;-72
2022/11/09 16:44:51;;;;;;;5.10;1.90;;;14.80;99.90;;;;;;4975308;28;20436;-73
2022/11/09 16:47:18;;;;;;;4.73;1.90;;;14.80;99.90;;;;;;4973221;28;20456;-73
2022/11/09 16:49:43;;;;;;;3.17;1.60;;;14.80;99.90;;;;;;4962322;28;20470;-74
2022/11/09 16:52:09;;;;;;;3.67;1.70;;;14.80;99.90;;;;;;4955069;29;20474;-73
2022/11/09 16:54:35;;;;;;;5.10;2.30;;;14.70;99.90;;;;;;4960882;28;20178;-73
2022/11/09 16:57:01;;;;;;;4.80;2.03;;;14.60;99.90;;;;;;4963735;28;20178;-80
2022/11/09 16:59:27;;;;;;;4.93;2.07;;;14.60;99.90;;;;;;4964705;28;20434;-74
2022/11/09 17:01:55;;;;;;;11.40;2.60;;;14.60;99.90;;;;;;4963623;28;20436;-72
2022/11/09 17:04:21;;;;;;;9.67;2.17;;;14.60;99.90;;;;;;4963058;28;20448;-74